Time;durP1;ratioP1;P1;durP2;ratioP2;P2;SDS_P1;SDS_P2;PMS_P1;PMS_P2;Temp;Humidity;BMP_temperature;BMP_pressure;BME280_temperature;BME280_humidity;BME280_pressure;Samples;Min_cycle;Max_cycle;Signal;HPM_P1;HPM_P2
2023/07/07 00:01:51;;;;;;;;;;;;;;;14.56;74.02;93270.13;2054964;69;20086;-77
2023/07/07 00:04:17;;;;;;;;;;;;;;;14.54;74.20;93272.88;2054332;69;20569;-77
2023/07/07 00:06:43;;;;;;;;;;;;;;;14.44;74.61;93276.59;2055054;69;20141;-77
2023/07/07 00:09:09;;;;;;;;;;;;;;;14.47;74.36;93268.94;2055034;69;20486;-77
2023/07/07 00:11:35;;;;;;;;;;;;;;;14.46;74.20;93276.69;2054898;69;20570;-77
2023/07/07 00:14:00;;;;;;;;;;;;;;;14.33;74.62;93266.03;2055090;69;20050;-78
2023/07/07 00:16:27;;;;;;;;;;;;;;;14.22;74.64;93267.56;2054829;70;20054;-77
2023/07/07 00:18:56;;;;;;;;;;;;;;;14.11;75.70;93267.59;2054716;69;20141;-77
2023/07/07 00:21:25;;;;;;;;;;;;;;;14.26;74.83;93277.66;2054871;69;20086;-78
2023/07/07 00:23:53;;;;;;;;;;;;;;;14.26;75.33;93278.41;2054699;69;20050;-78
2023/07/07 00:26:20;;;;;;;;;;;;;;;14.33;74.75;93266.03;2053789;70;20050;-77
2023/07/07 00:28:46;;;;;;;;;;;;;;;14.27;74.94;93271.38;2054665;69;20593;-77
2023/07/07 00:31:12;;;;;;;;;;;;;;;14.28;74.32;93275.66;2054338;69;20421;-77
2023/07/07 00:33:37;;;;;;;;;;;;;;;14.33;73.94;93270.97;2053655;69;20050;-78
2023/07/07 00:36:04;;;;;;;;;;;;;;;14.29;75.40;93284.91;2054005;70;20100;-78
2023/07/07 00:38:30;;;;;;;;;;;;;;;14.39;74.91;93268.50;2054474;69;20066;-77
2023/07/07 00:40:59;;;;;;;;;;;;;;;14.34;74.31;93276.03;2054628;69;20442;-78
2023/07/07 00:43:24;;;;;;;;;;;;;;;14.28;74.84;93272.84;2054128;69;20051;-77
2023/07/07 00:45:50;;;;;;;;;;;;;;;14.22;74.74;93278.91;2054642;69;20455;-77
2023/07/07 00:48:25;;;;;;;;;;;;;;;14.28;74.98;93274.94;2054141;69;20169;-77
2023/07/07 00:50:57;;;;;;;;;;;;;;;14.27;74.36;93279.88;2051451;69;20050;-80
2023/07/07 00:53:23;;;;;;;;;;;;;;;14.30;73.50;93281.47;2054912;69;20431;-77
2023/07/07 00:55:57;;;;;;;;;;;;;;;14.35;73.54;93282.44;2054951;69;20145;-78
2023/07/07 00:58:24;;;;;;;;;;;;;;;14.29;74.28;93274.31;2054940;69;20050;-77
2023/07/07 01:00:52;;;;;;;;;;;;;;;14.10;75.43;93272.53;2055063;69;20153;-79
2023/07/07 01:03:22;;;;;;;;;;;;;;;14.09;75.48;93278.84;2054233;70;20153;-78
2023/07/07 01:05:49;;;;;;;;;;;;;;;14.14;75.33;93277.69;2054431;70;20086;-78
2023/07/07 01:08:15;;;;;;;;;;;;;;;13.89;76.05;93286.91;2054792;69;20090;-78
2023/07/07 01:10:40;;;;;;;;;;;;;;;13.89;74.70;93284.06;2053973;70;20085;-78
2023/07/07 01:13:07;;;;;;;;;;;;;;;14.09;74.51;93287.31;2054112;70;20140;-78
2023/07/07 01:15:37;;;;;;;;;;;;;;;14.01;75.11;93281.19;2054366;70;20058;-77
2023/07/07 01:18:20;;;;;;;;;;;;;;;14.07;75.34;93292.88;2054097;69;20046;-77
2023/07/07 01:21:01;;;;;;;;;;;;;;;13.96;77.33;93297.94;2054875;69;20081;-78
2023/07/07 01:23:26;;;;;;;;;;;;;;;14.07;76.19;93299.28;2054877;69;20092;-78
2023/07/07 01:26:04;;;;;;;;;;;;;;;13.98;76.27;93298.06;2054391;70;20054;-77
2023/07/07 01:28:53;;;;;;;;;;;;;;;14.09;74.85;93307.88;2055447;69;20146;-78
2023/07/07 01:31:42;;;;;;;;;;;;;;;13.99;75.16;93304.47;2051704;70;20108;-77
2023/07/07 01:34:13;;;;;;;;;;;;;;;14.02;74.29;93302.47;2055103;69;20120;-77
2023/07/07 01:36:39;;;;;;;;;;;;;;;13.98;75.49;93306.56;2055384;69;20117;-77
2023/07/07 01:39:05;;;;;;;;;;;;;;;13.99;75.00;93307.28;2054582;70;20141;-76
2023/07/07 01:41:52;;;;;;;;;;;;;;;13.91;75.07;93282.09;2054648;70;20116;-78
2023/07/07 01:44:23;;;;;;;;;;;;;;;13.89;75.38;93292.56;2054728;70;20135;-77
2023/07/07 01:46:55;;;;;;;;;;;;;;;13.90;74.78;93294.75;2054755;69;20508;-77
2023/07/07 01:49:36;;;;;;;;;;;;;;;13.90;75.43;93291.94;2054106;70;20116;-76
2023/07/07 01:52:10;;;;;;;;;;;;;;;13.96;75.55;93297.94;2052097;70;20063;-78
2023/07/07 01:54:39;;;;;;;;;;;;;;;13.98;74.80;93305.84;2051376;70;20086;-77
2023/07/07 01:57:05;;;;;;;;;;;;;;;13.99;75.09;93298.81;2052058;69;20046;-78
2023/07/07 01:59:31;;;;;;;;;;;;;;;13.94;74.57;93297.84;2051283;70;20051;-77
2023/07/07 02:02:02;;;;;;;;;;;;;;;13.96;75.17;93305.69;2051247;70;20574;-78
2023/07/07 02:04:41;;;;;;;;;;;;;;;13.85;74.91;93301.56;2051300;70;20133;-78
2023/07/07 02:10:24;;;;;;;;;;;;;;;13.71;75.60;93304.28;2048640;70;20465;-78
2023/07/07 02:12:50;;;;;;;;;;;;;;;13.83;74.28;93301.41;2045344;70;20055;-78
2023/07/07 02:15:15;;;;;;;;;;;;;;;13.83;74.39;93297.84;2048641;70;20500;-77
2023/07/07 02:17:41;;;;;;;;;;;;;;;13.73;74.84;93295.19;2048006;70;20062;-78
2023/07/07 02:20:07;;;;;;;;;;;;;;;13.72;75.08;93299.38;2048586;70;20047;-78
2023/07/07 02:22:32;;;;;;;;;;;;;;;13.75;74.98;93294.56;2048277;70;20063;-78
2023/07/07 02:24:57;;;;;;;;;;;;;;;13.69;75.49;93301.31;2047972;70;20058;-77
2023/07/07 02:27:23;;;;;;;;;;;;;;;13.80;75.53;93296.28;2048290;70;20106;-77
2023/07/07 02:29:49;;;;;;;;;;;;;;;13.66;76.09;93299.75;2048571;70;20090;-77
2023/07/07 02:32:21;;;;;;;;;;;;;;;13.63;75.66;93300.97;2048641;70;20222;-78
2023/07/07 02:34:48;;;;;;;;;;;;;;;13.63;75.75;93300.25;2045288;70;20087;-77
2023/07/07 02:37:18;;;;;;;;;;;;;;;13.60;75.96;93292.97;2048495;70;20047;-77
2023/07/07 02:39:45;;;;;;;;;;;;;;;13.69;75.42;93292.84;2048187;70;20057;-78
2023/07/07 02:42:15;;;;;;;;;;;;;;;13.43;76.47;93300.53;2047974;70;20062;-77
2023/07/07 02:44:43;;;;;;;;;;;;;;;13.52;76.00;93295.34;2048560;70;20087;-78
2023/07/07 02:47:10;;;;;;;;;;;;;;;13.48;76.01;93304.31;2048330;70;20063;-78
2023/07/07 02:49:36;;;;;;;;;;;;;;;13.57;74.75;93308.38;2048411;70;20085;-79
2023/07/07 02:52:02;;;;;;;;;;;;;;;13.46;75.91;93302.09;2048520;70;20153;-78
2023/07/07 02:54:27;;;;;;;;;;;;;;;13.57;75.21;93300.63;2048671;70;20047;-78
2023/07/07 02:56:54;;;;;;;;;;;;;;;13.47;75.14;93291.53;2048073;70;20078;-79
2023/07/07 02:59:20;;;;;;;;;;;;;;;13.47;75.73;93300.03;2048434;70;20063;-78
2023/07/07 03:01:46;;;;;;;;;;;;;;;13.47;74.85;93300.75;2048435;70;20102;-78
2023/07/07 03:04:12;;;;;;;;;;;;;;;13.33;75.79;93308.41;2047922;70;20047;-77
2023/07/07 03:06:39;;;;;;;;;;;;;;;13.35;75.42;93300.03;2047870;70;20057;-78
2023/07/07 03:09:07;;;;;;;;;;;;;;;13.28;76.01;93297.44;2048301;70;20503;-78
2023/07/07 03:11:33;;;;;;;;;;;;;;;13.30;75.53;93297.56;2048024;70;20051;-79
2023/07/07 03:13:59;;;;;;;;;;;;;;;13.19;76.22;93299.00;2048682;70;20061;-78
2023/07/07 03:16:32;;;;;;;;;;;;;;;13.19;75.86;93299.78;2047979;70;20063;-78
2023/07/07 03:19:05;;;;;;;;;;;;;;;13.21;76.15;93307.63;2047592;70;20062;-78
2023/07/07 03:21:33;;;;;;;;;;;;;;;13.21;75.71;93307.63;2047524;70;20157;-78
2023/07/07 03:24:19;;;;;;;;;;;;;;;13.18;76.84;93314.50;2048391;70;20114;-78
2023/07/07 03:26:45;;;;;;;;;;;;;;;13.16;75.95;93314.38;2047962;70;20067;-78
2023/07/07 03:29:13;;;;;;;;;;;;;;;13.05;76.93;93318.66;2047994;70;20055;-78
2023/07/07 03:31:41;;;;;;;;;;;;;;;13.15;76.50;93322.13;2047919;70;20057;-78
2023/07/07 03:34:07;;;;;;;;;;;;;;;13.10;76.09;93317.59;2047799;70;20051;-78
2023/07/07 03:36:37;;;;;;;;;;;;;;;13.12;76.57;93316.97;2048682;70;20074;-79
2023/07/07 03:39:04;;;;;;;;;;;;;;;13.17;75.96;93327.16;2047950;70;20051;-79
2023/07/07 03:41:29;;;;;;;;;;;;;;;13.15;75.75;93327.06;2045190;70;20426;-78
2023/07/07 03:43:56;;;;;;;;;;;;;;;12.99;76.74;93329.59;2048124;70;20051;-78
2023/07/07 03:46:24;;;;;;;;;;;;;;;13.05;76.32;93326.41;2047868;70;20062;-78
2023/07/07 03:48:50;;;;;;;;;;;;;;;13.01;76.65;93332.53;2047862;70;20059;-78
2023/07/07 03:51:17;;;;;;;;;;;;;;;13.04;76.05;93322.84;2048686;70;20082;-78
2023/07/07 03:53:43;;;;;;;;;;;;;;;13.05;76.20;93326.41;2048680;70;20525;-79
2023/07/07 03:56:09;;;;;;;;;;;;;;;13.00;75.67;93328.25;2050990;70;20085;-78
2023/07/07 03:58:35;;;;;;;;;;;;;;;12.93;76.62;93334.88;2051401;70;20426;-78
2023/07/07 04:01:03;;;;;;;;;;;;;;;13.03;76.07;93343.25;2051436;70;20507;-78
2023/07/07 04:03:28;;;;;;;;;;;;;;;12.94;76.92;93350.50;2051412;70;20149;-77
2023/07/07 04:05:55;;;;;;;;;;;;;;;12.80;77.80;93349.59;2048186;70;20521;-77
2023/07/07 04:08:24;;;;;;;;;;;;;;;12.97;76.50;93332.31;2048660;70;20055;-77
2023/07/07 04:11:00;;;;;;;;;;;;;;;13.05;76.03;93346.19;2048617;70;20189;-78
2023/07/07 04:13:26;;;;;;;;;;;;;;;13.07;75.78;93349.16;2048623;70;20078;-78
2023/07/07 04:16:00;;;;;;;;;;;;;;;13.00;76.77;93352.94;2048038;70;20088;-77
2023/07/07 04:18:26;;;;;;;;;;;;;;;13.14;75.29;93348.19;2042985;70;20075;-78
2023/07/07 04:20:51;;;;;;;;;;;;;;;13.12;75.73;93340.31;2046114;70;20062;-77
2023/07/07 04:23:17;;;;;;;;;;;;;;;13.13;75.92;93350.28;2048165;70;20047;-77
2023/07/07 04:25:45;;;;;;;;;;;;;;;13.10;76.09;93343.03;2048021;70;20058;-78
2023/07/07 04:28:11;;;;;;;;;;;;;;;13.13;76.10;93347.44;2048465;70;20392;-78
2023/07/07 04:30:37;;;;;;;;;;;;;;;13.25;75.96;93350.31;2048576;70;20131;-77
2023/07/07 04:33:03;;;;;;;;;;;;;;;13.26;76.07;93353.88;2048592;70;20526;-78
2023/07/07 04:35:28;;;;;;;;;;;;;;;13.12;76.26;93351.63;2048104;70;20471;-78
2023/07/07 04:37:56;;;;;;;;;;;;;;;13.16;77.10;93356.78;2048446;70;20172;-79
2023/07/07 04:40:22;;;;;;;;;;;;;;;13.21;76.80;93355.69;2048628;70;20491;-78
2023/07/07 04:42:48;;;;;;;;;;;;;;;13.33;75.70;93367.78;2048773;70;20047;-78
2023/07/07 04:45:13;;;;;;;;;;;;;;;13.29;76.17;93363.97;2047762;70;20051;-78
2023/07/07 04:47:39;;;;;;;;;;;;;;;13.25;77.08;93363.72;2046815;70;20575;-78
2023/07/07 04:50:04;;;;;;;;;;;;;;;13.22;77.20;93368.50;2046905;70;20074;-78
2023/07/07 04:52:30;;;;;;;;;;;;;;;13.35;76.56;93372.81;2045958;70;20487;-78
2023/07/07 04:54:55;;;;;;;;;;;;;;;13.29;76.62;93366.78;2046310;70;20071;-78
2023/07/07 04:57:21;;;;;;;;;;;;;;;13.33;76.36;93373.44;2046236;70;20434;-78
2023/07/07 04:59:48;;;;;;;;;;;;;;;13.32;76.64;93371.94;2045949;70;20059;-79
2023/07/07 05:02:14;;;;;;;;;;;;;;;13.18;76.79;93374.59;2049109;70;20058;-77
2023/07/07 05:04:42;;;;;;;;;;;;;;;13.24;76.60;93377.13;2046597;70;20094;-77
2023/07/07 05:07:08;;;;;;;;;;;;;;;13.31;76.52;93375.41;2046689;70;20080;-78
2023/07/07 05:09:33;;;;;;;;;;;;;;;13.32;76.32;93376.88;2047162;70;20055;-78
2023/07/07 05:11:59;;;;;;;;;;;;;;;13.37;75.79;93373.66;2047352;70;20098;-79
2023/07/07 05:14:26;;;;;;;;;;;;;;;13.41;75.62;93376.00;2046683;70;20629;-78
2023/07/07 05:16:53;;;;;;;;;;;;;;;13.36;76.28;93379.94;2046568;70;20055;-78
2023/07/07 05:19:19;;;;;;;;;;;;;;;13.40;77.32;93380.94;2047197;70;20083;-79
2023/07/07 05:21:44;;;;;;;;;;;;;;;13.40;76.50;93385.84;2047019;70;20047;-78
2023/07/07 05:24:10;;;;;;;;;;;;;;;13.44;76.70;93383.28;2047280;70;20521;-77
2023/07/07 05:26:35;;;;;;;;;;;;;;;13.40;76.06;93380.94;2046695;70;20522;-77
2023/07/07 05:29:03;;;;;;;;;;;;;;;13.43;75.97;93387.47;2047310;70;20230;-76
2023/07/07 05:31:29;;;;;;;;;;;;;;;13.25;75.95;93392.72;2046934;70;20059;-76
2023/07/07 05:33:57;;;;;;;;;;;;;;;13.37;76.51;93390.63;2046348;70;20051;-77
2023/07/07 05:36:22;;;;;;;;;;;;;;;13.45;76.28;93388.31;2047157;70;20533;-76
2023/07/07 05:38:50;;;;;;;;;;;;;;;13.56;75.76;93389.69;2047184;70;20055;-78
2023/07/07 05:41:15;;;;;;;;;;;;;;;13.50;76.74;93394.22;2047121;70;20491;-77
2023/07/07 05:43:41;;;;;;;;;;;;;;;13.51;76.49;93393.59;2046797;70;20049;-77
2023/07/07 05:46:09;;;;;;;;;;;;;;;13.54;76.14;93385.97;2048365;70;20102;-77
2023/07/07 05:48:35;;;;;;;;;;;;;;;13.57;76.44;93384.75;2045616;70;20047;-77
2023/07/07 05:51:01;;;;;;;;;;;;;;;13.67;75.60;93394.59;2045792;70;20156;-78
2023/07/07 05:53:28;;;;;;;;;;;;;;;13.66;76.19;93383.88;2048184;70;20070;-77
2023/07/07 05:55:58;;;;;;;;;;;;;;;13.75;75.83;93385.13;2048930;70;20173;-78
2023/07/07 05:58:24;;;;;;;;;;;;;;;13.71;75.74;93386.34;2048349;70;20594;-77
2023/07/07 06:00:50;;;;;;;;;;;;;;;13.67;77.01;93388.94;2047363;70;20093;-77
2023/07/07 06:03:15;;;;;;;;;;;;;;;13.76;76.25;93392.97;2047343;70;20117;-78
2023/07/07 06:05:41;;;;;;;;;;;;;;;13.68;76.20;93389.66;2047030;70;20058;-76
2023/07/07 06:08:11;;;;;;;;;;;;;;;13.75;75.72;93397.19;2048154;70;20526;-76
2023/07/07 06:10:38;;;;;;;;;;;;;;;13.80;75.13;93395.31;2048690;70;20055;-78
2023/07/07 06:13:04;;;;;;;;;;;;;;;13.78;75.71;93398.03;2048484;70;20090;-78
2023/07/07 06:15:30;;;;;;;;;;;;;;;13.84;76.12;93399.13;2048244;70;20047;-78
2023/07/07 06:17:56;;;;;;;;;;;;;;;13.85;76.34;93394.22;2048655;70;20067;-78
2023/07/07 06:20:23;;;;;;;;;;;;;;;13.88;76.70;93398.63;2048663;70;20054;-78
2023/07/07 06:22:48;;;;;;;;;;;;;;;13.94;76.69;93394.06;2048705;70;20059;-78
2023/07/07 06:25:14;;;;;;;;;;;;;;;13.90;76.14;93395.94;2048745;70;20059;-78
2023/07/07 06:27:43;;;;;;;;;;;;;;;14.12;75.41;93391.59;2047436;70;20404;-78
2023/07/07 06:30:10;;;;;;;;;;;;;;;14.27;76.08;93383.91;2044888;70;20055;-76
2023/07/07 06:32:36;;;;;;;;;;;;;;;14.41;75.51;93381.91;2045198;70;20050;-78
2023/07/07 06:35:01;;;;;;;;;;;;;;;14.36;75.56;93369.59;2045107;70;20059;-77
2023/07/07 06:37:27;;;;;;;;;;;;;;;14.56;76.84;93378.53;2046292;70;20054;-78
2023/07/07 06:39:52;;;;;;;;;;;;;;;14.61;77.62;93379.50;2045478;70;20090;-77
2023/07/07 06:42:18;;;;;;;;;;;;;;;14.78;76.25;93375.50;2045445;70;20416;-78
2023/07/07 06:44:53;;;;;;;;;;;;;;;14.85;76.79;93371.66;2044751;70;20059;-77
2023/07/07 06:47:18;;;;;;;;;;;;;;;14.90;77.46;93382.59;2046939;70;20071;-77
2023/07/07 06:49:56;;;;;;;;;;;;;;;15.08;76.36;93379.28;2047261;70;20051;-77
2023/07/07 06:52:25;;;;;;;;;;;;;;;15.02;77.67;93378.94;2046917;70;20082;-77
2023/07/07 06:54:57;;;;;;;;;;;;;;;15.21;76.21;93376.50;2046368;70;20103;-77
2023/07/07 06:57:34;;;;;;;;;;;;;;;15.34;76.16;93377.88;2048586;70;20053;-78
2023/07/07 07:00:09;;;;;;;;;;;;;;;15.38;75.81;93385.88;2047435;70;20154;-78
2023/07/07 07:02:43;;;;;;;;;;;;;;;15.49;75.65;93379.38;2046090;70;20067;-78
2023/07/07 07:05:12;;;;;;;;;;;;;;;15.60;75.58;93381.38;2047158;70;20089;-78
2023/07/07 07:07:37;;;;;;;;;;;;;;;15.75;75.10;93389.31;2048611;70;20157;-77
2023/07/07 07:10:04;;;;;;;;;;;;;;;15.85;75.30;93380.59;2048046;70;20412;-78
2023/07/07 07:12:30;;;;;;;;;;;;;;;15.89;74.13;93377.94;2048344;70;20055;-78
2023/07/07 07:14:55;;;;;;;;;;;;;;;15.90;75.60;93378.72;2047746;70;20090;-80
2023/07/07 07:17:21;;;;;;;;;;;;;;;16.08;74.92;93373.22;2047859;70;20111;-78
2023/07/07 07:19:46;;;;;;;;;;;;;;;16.21;75.48;93378.16;2047231;70;20094;-77
2023/07/07 07:22:12;;;;;;;;;;;;;;;16.27;73.47;93375.63;2047892;70;20059;-77
2023/07/07 07:24:38;;;;;;;;;;;;;;;16.27;75.46;93379.22;2047198;70;20166;-77
2023/07/07 07:27:04;;;;;;;;;;;;;;;16.37;74.57;93373.28;2047808;70;20498;-78
2023/07/07 07:29:31;;;;;;;;;;;;;;;16.47;75.68;93368.13;2047258;70;20051;-78
2023/07/07 07:31:56;;;;;;;;;;;;;;;16.59;75.87;93367.25;2047158;70;20121;-79
2023/07/07 07:34:29;;;;;;;;;;;;;;;16.63;76.36;93365.34;2047191;70;20081;-78
2023/07/07 07:36:56;;;;;;;;;;;;;;;16.75;76.11;93360.25;2047562;70;20183;-78
2023/07/07 07:39:23;;;;;;;;;;;;;;;16.85;75.50;93360.00;2047127;70;20507;-78
2023/07/07 07:41:49;;;;;;;;;;;;;;;16.94;74.86;93364.72;2047605;70;20493;-78
2023/07/07 07:44:15;;;;;;;;;;;;;;;16.97;73.91;93363.44;2048303;70;20083;-79
2023/07/07 07:46:42;;;;;;;;;;;;;;;17.08;74.69;93358.97;2048394;70;20173;-78
2023/07/07 07:49:08;;;;;;;;;;;;;;;17.24;73.76;93353.31;2048567;70;20446;-79
2023/07/07 07:51:37;;;;;;;;;;;;;;;17.35;74.16;93349.56;2048357;70;20050;-79
2023/07/07 07:54:07;;;;;;;;;;;;;;;17.54;73.95;93353.97;2048763;70;20434;-79
2023/07/07 07:56:33;;;;;;;;;;;;;;;17.62;73.61;93350.75;2048804;70;20055;-79
2023/07/07 07:58:59;;;;;;;;;;;;;;;17.78;73.35;93351.53;2048728;70;20058;-79
2023/07/07 08:01:24;;;;;;;;;;;;;;;17.94;73.49;93351.50;2048774;70;20516;-79
2023/07/07 08:03:50;;;;;;;;;;;;;;;17.99;70.52;93350.28;2048610;70;20055;-79
2023/07/07 08:06:15;;;;;;;;;;;;;;;18.13;71.49;93344.47;2048745;70;20156;-80
2023/07/07 08:08:40;;;;;;;;;;;;;;;18.27;70.61;93340.09;2048806;70;20074;-79
2023/07/07 08:11:12;;;;;;;;;;;;;;;18.49;70.91;93351.00;2048634;70;20430;-79
2023/07/07 08:13:41;;;;;;;;;;;;;;;18.57;65.42;93337.06;2048074;70;20072;-80
2023/07/07 08:16:10;;;;;;;;;;;;;;;18.87;63.75;93348.28;2048660;70;20103;-82
2023/07/07 08:18:36;;;;;;;;;;;;;;;19.11;65.83;93335.00;2048657;70;20083;-80
2023/07/07 08:21:01;;;;;;;;;;;;;;;19.40;61.11;93348.22;2049206;70;20094;-78
2023/07/07 08:23:27;;;;;;;;;;;;;;;19.74;57.19;93345.22;2048927;70;20113;-80
2023/07/07 08:25:52;;;;;;;;;;;;;;;19.89;59.38;93343.66;2047869;70;20054;-80
2023/07/07 08:28:18;;;;;;;;;;;;;;;20.42;58.77;93337.66;2048608;70;20491;-80
2023/07/07 08:30:43;;;;;;;;;;;;;;;20.65;57.44;93333.44;2048558;70;20055;-78
2023/07/07 08:33:09;;;;;;;;;;;;;;;21.02;56.53;93338.22;2048323;70;20059;-77
2023/07/07 08:35:35;;;;;;;;;;;;;;;21.43;55.88;93330.94;2048727;70;20140;-78
2023/07/07 08:38:01;;;;;;;;;;;;;;;21.89;54.01;93330.13;2049043;70;20055;-77
2023/07/07 08:40:30;;;;;;;;;;;;;;;22.18;53.13;93326.69;2049149;70;20051;-80
2023/07/07 08:42:56;;;;;;;;;;;;;;;22.46;54.22;93326.00;2049225;70;20057;-78
2023/07/07 08:45:23;;;;;;;;;;;;;;;22.82;51.35;93320.47;2048616;70;20070;-77
2023/07/07 08:47:59;;;;;;;;;;;;;;;22.99;51.99;93316.59;2049123;70;20115;-77
2023/07/07 08:50:43;;;;;;;;;;;;;;;23.19;51.16;93312.78;2049081;70;20122;-78
2023/07/07 08:53:14;;;;;;;;;;;;;;;23.08;46.97;93321.13;2049020;70;20471;-76
2023/07/07 08:55:58;;;;;;;;;;;;;;;22.83;47.46;93310.44;2049072;70;20051;-76
2023/07/07 08:58:46;;;;;;;;;;;;;;;23.54;47.57;93306.38;2049002;70;20043;-77
2023/07/07 09:01:11;;;;;;;;;;;;;;;23.73;45.73;93303.91;2048686;70;20048;-78
2023/07/07 09:03:40;;;;;;;;;;;;;;;24.46;47.43;93299.63;2048968;70;20472;-79
2023/07/07 09:06:08;;;;;;;;;;;;;;;24.19;46.05;93298.41;2049049;70;20047;-79
2023/07/07 09:08:42;;;;;;;;;;;;;;;24.13;42.31;93288.91;2048482;70;20051;-80
2023/07/07 09:11:13;;;;;;;;;;;;;;;24.96;40.87;93296.19;2049102;70;20084;-78
2023/07/07 09:13:39;;;;;;;;;;;;;;;24.98;41.77;93293.38;2048974;70;20146;-78
2023/07/07 09:16:17;;;;;;;;;;;;;;;25.76;42.33;93285.91;2048535;70;20055;-82
2023/07/07 09:18:55;;;;;;;;;;;;;;;25.62;39.08;93285.69;2048910;70;20161;-80
2023/07/07 09:21:23;;;;;;;;;;;;;;;26.08;37.82;93286.31;2049039;70;20499;-82
2023/07/07 09:23:52;;;;;;;;;;;;;;;26.48;40.17;93290.38;2049068;70;20047;-81
2023/07/07 09:26:25;;;;;;;;;;;;;;;25.62;38.71;93286.41;2048908;70;20423;-81
2023/07/07 09:28:53;;;;;;;;;;;;;;;26.27;40.51;93287.25;2048439;70;20431;-80
2023/07/07 09:31:29;;;;;;;;;;;;;;;26.22;36.43;93287.91;2048886;70;20047;-81
2023/07/07 09:33:55;;;;;;;;;;;;;;;26.90;37.96;93287.19;2048821;70;20110;-77
2023/07/07 09:36:33;;;;;;;;;;;;;;;27.16;38.92;93285.97;2048946;70;20058;-79
2023/07/07 09:39:21;;;;;;;;;;;;;;;27.53;40.23;93281.19;2048980;70;20118;-78
2023/07/07 09:42:10;;;;;;;;;;;;;;;27.88;36.42;93278.53;2048872;70;20122;-77
2023/07/07 09:44:56;;;;;;;;;;;;;;;27.98;37.92;93279.28;2048889;70;20082;-79
2023/07/07 09:47:45;;;;;;;;;;;;;;;28.86;38.11;93271.63;2049038;70;20052;-80
2023/07/07 09:50:16;;;;;;;;;;;;;;;28.62;37.19;93266.50;2048611;70;20047;-79
2023/07/07 09:52:48;;;;;;;;;;;;;;;29.18;36.68;93269.47;2048921;70;20055;-79
2023/07/07 09:55:16;;;;;;;;;;;;;;;29.83;36.04;93273.06;2049064;70;20051;-79
2023/07/07 09:57:45;;;;;;;;;;;;;;;29.70;33.16;93262.94;2048804;70;20434;-80
2023/07/07 10:00:15;;;;;;;;;;;;;;;30.26;31.95;93266.41;2048872;70;20059;-78
2023/07/07 10:02:40;;;;;;;;;;;;;;;28.24;33.81;93257.69;2048898;70;20051;-78
2023/07/07 10:05:07;;;;;;;;;;;;;;;28.31;33.34;93256.25;2048735;70;20051;-79
2023/07/07 10:07:40;;;;;;;;;;;;;;;28.69;32.93;93263.63;2048921;70;20488;-80
2023/07/07 10:10:06;;;;;;;;;;;;;;;29.31;30.76;93259.31;2048815;70;20051;-79
2023/07/07 10:12:32;;;;;;;;;;;;;;;30.12;31.42;93255.53;2048794;70;20053;-79
2023/07/07 10:14:58;;;;;;;;;;;;;;;30.67;31.90;93252.38;2049514;70;20055;-80
2023/07/07 10:17:26;;;;;;;;;;;;;;;30.44;27.79;93248.88;2049723;70;20047;-80
2023/07/07 10:19:56;;;;;;;;;;;;;;;31.06;29.56;93249.22;2048785;70;20139;-79
2023/07/07 10:22:21;;;;;;;;;;;;;;;31.93;28.22;93259.38;2048435;70;20051;-80
2023/07/07 10:24:47;;;;;;;;;;;;;;;31.51;30.84;93246.69;2049033;70;20118;-79
2023/07/07 10:27:15;;;;;;;;;;;;;;;31.68;25.25;93243.63;2045663;70;20051;-81
2023/07/07 10:29:42;;;;;;;;;;;;;;;32.47;28.23;93251.47;2048866;70;20098;-81
2023/07/07 10:32:12;;;;;;;;;;;;;;;33.34;28.30;93252.41;2048263;70;20062;-81
2023/07/07 10:34:43;;;;;;;;;;;;;;;33.73;27.74;93242.28;2048653;70;20055;-81
2023/07/07 10:37:23;;;;;;;;;;;;;;;34.45;28.63;93247.47;2048449;70;20134;-80
2023/07/07 10:39:50;;;;;;;;;;;;;;;35.44;27.58;93243.81;2049191;70;20059;-80
2023/07/07 10:42:15;;;;;;;;;;;;;;;36.70;26.60;93242.63;2048845;70;20400;-80
2023/07/07 10:44:42;;;;;;;;;;;;;;;35.14;24.59;93237.94;2048304;70;20506;-81
2023/07/07 10:47:10;;;;;;;;;;;;;;;39.30;22.11;93246.94;2048891;70;20074;-80
2023/07/07 10:49:36;;;;;;;;;;;;;;;39.88;19.53;93243.13;2048730;70;20503;-81
2023/07/07 10:52:04;;;;;;;;;;;;;;;41.71;20.18;93251.78;2049121;70;20047;-81
2023/07/07 10:54:56;;;;;;;;;;;;;;;39.68;19.29;93244.69;2048786;70;20047;-81
2023/07/07 10:57:32;;;;;;;;;;;;;;;42.25;19.09;93246.91;2048392;70;20089;-81
2023/07/07 11:00:04;;;;;;;;;;;;;;;41.98;19.41;93239.38;2048667;70;20055;-81
2023/07/07 11:02:41;;;;;;;;;;;;;;;42.18;17.53;93251.69;2048905;70;20142;-80
2023/07/07 11:05:06;;;;;;;;;;;;;;;43.87;18.12;93246.19;2048670;70;20142;-80
2023/07/07 11:07:51;;;;;;;;;;;;;;;45.06;17.29;93245.03;2048840;70;20055;-81
2023/07/07 11:10:35;;;;;;;;;;;;;;;45.90;15.42;93249.31;2048699;70;20070;-79
2023/07/07 11:13:03;;;;;;;;;;;;;;;46.94;16.22;93242.25;2048289;70;20051;-78
2023/07/07 11:15:35;;;;;;;;;;;;;;;46.27;14.78;93241.63;2049300;70;20122;-78
2023/07/07 11:18:09;;;;;;;;;;;;;;;46.01;13.71;93238.16;2047594;70;20499;-79
2023/07/07 11:20:54;;;;;;;;;;;;;;;46.85;13.87;93233.16;2046526;70;20059;-78
2023/07/07 11:23:20;;;;;;;;;;;;;;;46.12;14.91;93232.94;2046218;70;20051;-78
2023/07/07 11:26:00;;;;;;;;;;;;;;;47.22;14.45;93223.91;2046414;70;20297;-77
2023/07/07 11:29:01;;;;;;;;;;;;;;;46.97;14.87;93219.72;2046407;70;20051;-79
2023/07/07 11:31:30;;;;;;;;;;;;;;;48.20;14.59;93222.69;2045686;70;20123;-78
2023/07/07 11:34:14;;;;;;;;;;;;;;;45.91;15.43;93215.03;2046089;70;20051;-79
2023/07/07 11:36:45;;;;;;;;;;;;;;;48.96;13.61;93215.31;2046470;70;20122;-78
2023/07/07 11:39:17;;;;;;;;;;;;;;;50.43;12.84;93209.28;2045991;70;20173;-78
2023/07/07 11:41:52;;;;;;;;;;;;;;;51.44;12.67;93220.00;2045676;69;20107;-77
2023/07/07 11:44:37;;;;;;;;;;;;;;;48.56;13.69;93198.97;2047642;70;20077;-77
2023/07/07 11:47:11;;;;;;;;;;;;;;;45.82;12.75;93196.31;2047643;70;20067;-78
2023/07/07 11:49:51;;;;;;;;;;;;;;;46.18;13.13;93195.41;2046932;70;20067;-78
2023/07/07 11:52:20;;;;;;;;;;;;;;;49.35;11.57;93194.28;2047349;70;20164;-78
2023/07/07 11:55:04;;;;;;;;;;;;;;;51.83;12.33;93198.56;2047661;70;20047;-78
2023/07/07 11:57:45;;;;;;;;;;;;;;;49.60;12.48;93187.75;2048549;70;20058;-78
2023/07/07 12:00:26;;;;;;;;;;;;;;;51.55;12.18;93193.56;2045963;70;20051;-78
2023/07/07 12:02:56;;;;;;;;;;;;;;;49.32;12.38;93181.09;2046597;70;20058;-78
2023/07/07 12:05:29;;;;;;;;;;;;;;;50.71;11.65;93185.19;2045767;70;20055;-78
2023/07/07 12:07:58;;;;;;;;;;;;;;;50.26;12.12;93182.31;2046035;70;20139;-78
2023/07/07 12:10:34;;;;;;;;;;;;;;;51.64;11.90;93192.78;2045621;70;20101;-79
2023/07/07 12:13:03;;;;;;;;;;;;;;;51.70;11.92;93180.25;2046491;70;20062;-79
2023/07/07 12:15:32;;;;;;;;;;;;;;;51.74;10.61;93171.59;2046808;70;20142;-78
2023/07/07 12:18:17;;;;;;;;;;;;;;;51.40;12.76;93171.69;2045898;70;20487;-79
2023/07/07 12:20:45;;;;;;;;;;;;;;;48.36;14.03;93152.78;2046611;70;20061;-78
2023/07/07 12:23:15;;;;;;;;;;;;;;;45.67;16.29;93154.91;2046845;70;20139;-78
2023/07/07 12:25:41;;;;;;;;;;;;;;;42.50;16.35;93140.53;2046622;70;20059;-78
2023/07/07 12:28:08;;;;;;;;;;;;;;;40.24;18.18;93136.94;2046774;70;20098;-78
2023/07/07 12:30:39;;;;;;;;;;;;;;;38.65;18.96;93127.31;2045494;70;20118;-79
2023/07/07 12:33:08;;;;;;;;;;;;;;;39.23;16.44;93130.97;2046496;70;20051;-79
2023/07/07 12:35:43;;;;;;;;;;;;;;;37.92;19.85;93117.59;2046201;70;20055;-78
2023/07/07 12:38:25;;;;;;;;;;;;;;;37.93;20.54;93116.09;2047434;70;20105;-78
2023/07/07 12:40:53;;;;;;;;;;;;;;;37.60;19.62;93114.28;2045129;70;20502;-79
2023/07/07 12:43:18;;;;;;;;;;;;;;;37.10;18.79;93105.72;2045127;70;20526;-78
2023/07/07 12:45:44;;;;;;;;;;;;;;;36.32;22.43;93102.28;2045133;70;20591;-79
2023/07/07 12:48:21;;;;;;;;;;;;;;;35.49;22.30;93104.66;2045133;70;20161;-78
2023/07/07 12:50:48;;;;;;;;;;;;;;;35.94;19.74;93098.25;2046300;70;20055;-78
2023/07/07 12:53:29;;;;;;;;;;;;;;;35.74;21.04;93090.78;2046624;70;20094;-78
2023/07/07 12:56:07;;;;;;;;;;;;;;;35.34;22.72;93083.81;2047283;70;20072;-77
2023/07/07 12:58:38;;;;;;;;;;;;;;;34.78;21.90;93081.56;2048421;70;20507;-77
2023/07/07 13:01:04;;;;;;;;;;;;;;;34.77;23.49;93079.41;2046702;70;20550;-77
2023/07/07 13:03:30;;;;;;;;;;;;;;;34.81;23.84;93076.38;2045118;70;20058;-77